<?xml version="1.0" encoding="UTF-8" standalone="no" ?>
<gpx xmlns="http://www.topografix.com/GPX/1/1" xmlns:xsi="http://www.w3.org/2001/XMLSchema-instance" xsi:schemaLocation="http://www.topografix.com/GPX/1/1 http://www.topografix.com/GPX/1/1/gpx.xsd" version="1.1" creator="VisuGPX - https://www.visugpx.com">
  <metadata>
    <name>Sur les traces de Cadoudal à Locoal-Mendon</name>
  </metadata>
  <wpt lat="47.69684" lon="-3.15881">
    <ele>7</ele>
    <name><![CDATA[Parking]]></name>
  </wpt>
  <wpt lat="47.69784" lon="-3.16435">
    <ele>15</ele>
    <name><![CDATA[Cache de Cadoudal]]></name>
  </wpt>
  <wpt lat="47.69825" lon="-3.16851">
    <ele>2.3</ele>
    <name><![CDATA[Parc à huîtres]]></name>
  </wpt>
  <wpt lat="47.69512" lon="-3.16453">
    <ele>7</ele>
    <name><![CDATA[Plages]]></name>
  </wpt>
  <wpt lat="47.69684" lon="-3.15879">
    <ele>7</ele>
    <name><![CDATA[Parking]]></name>
  </wpt>
  <trk>
    <name><![CDATA[Sur les traces de Cadoudal à Locoal-Mendon]]></name>
    <trkseg>
      <trkpt lat="47.69684" lon="-3.15881">
        <ele>7</ele>
        <time>2019-07-18T18:57:47+02:00</time>
      </trkpt>
      <trkpt lat="47.69685" lon="-3.15916">
        <ele>9</ele>
        <time>2020-10-18T14:20:16+02:00</time>
      </trkpt>
      <trkpt lat="47.69695" lon="-3.15957">
        <ele>3</ele>
        <time>2019-07-18T18:58:05+02:00</time>
      </trkpt>
      <trkpt lat="47.69708" lon="-3.15987">
        <ele>3</ele>
        <time>2019-07-18T18:58:27+02:00</time>
      </trkpt>
      <trkpt lat="47.69725" lon="-3.16008">
        <ele>3</ele>
        <time>2019-07-18T18:58:45+02:00</time>
      </trkpt>
      <trkpt lat="47.69745" lon="-3.16025">
        <ele>3</ele>
        <time>2019-07-18T18:59:14+02:00</time>
      </trkpt>
      <trkpt lat="47.69761" lon="-3.16043">
        <ele>9</ele>
        <time>2019-07-18T18:59:29+02:00</time>
      </trkpt>
      <trkpt lat="47.69783" lon="-3.16055">
        <ele>2</ele>
        <time>2019-07-18T18:59:47+02:00</time>
      </trkpt>
      <trkpt lat="47.69806" lon="-3.16046">
        <ele>2</ele>
        <time>2019-07-18T19:00:03+02:00</time>
      </trkpt>
      <trkpt lat="47.6983" lon="-3.16047">
        <ele>2</ele>
        <time>2019-07-18T19:00:29+02:00</time>
      </trkpt>
      <trkpt lat="47.69842" lon="-3.16042">
        <ele>8</ele>
        <time>2020-10-18T14:21:01+02:00</time>
      </trkpt>
      <trkpt lat="47.69857" lon="-3.16058">
        <ele>8</ele>
        <time>2019-07-18T19:01:04+02:00</time>
      </trkpt>
      <trkpt lat="47.69862" lon="-3.16093">
        <ele>1</ele>
        <time>2019-07-18T19:01:23+02:00</time>
      </trkpt>
      <trkpt lat="47.6986" lon="-3.16127">
        <ele>1</ele>
        <time>2019-07-18T19:01:46+02:00</time>
      </trkpt>
      <trkpt lat="47.69849" lon="-3.16156">
        <ele>3</ele>
        <time>2019-07-18T19:02:05+02:00</time>
      </trkpt>
      <trkpt lat="47.69836" lon="-3.16189">
        <ele>10</ele>
        <time>2019-07-18T19:02:30+02:00</time>
      </trkpt>
      <trkpt lat="47.69823" lon="-3.16231">
        <ele>12</ele>
        <time>2019-07-18T19:02:54+02:00</time>
      </trkpt>
      <trkpt lat="47.69816" lon="-3.16263">
        <ele>13</ele>
        <time>2019-07-18T19:03:11+02:00</time>
      </trkpt>
      <trkpt lat="47.69814" lon="-3.16305">
        <ele>14</ele>
        <time>2019-07-18T19:03:25+02:00</time>
      </trkpt>
      <trkpt lat="47.69815" lon="-3.16321">
        <ele>5</ele>
        <time>2019-07-18T19:03:41+02:00</time>
      </trkpt>
      <trkpt lat="47.69807" lon="-3.16353">
        <ele>5</ele>
        <time>2019-07-18T19:03:57+02:00</time>
      </trkpt>
      <trkpt lat="47.69797" lon="-3.16388">
        <ele>15</ele>
        <time>2019-07-18T19:04:16+02:00</time>
      </trkpt>
      <trkpt lat="47.69784" lon="-3.16435">
        <ele>15</ele>
        <time>2019-07-18T19:04:33+02:00</time>
      </trkpt>
      <trkpt lat="47.69775" lon="-3.16468">
        <ele>13</ele>
        <time>2019-07-18T19:04:44+02:00</time>
      </trkpt>
      <trkpt lat="47.69771" lon="-3.16488">
        <ele>13</ele>
        <time>2019-07-18T19:04:59+02:00</time>
      </trkpt>
      <trkpt lat="47.69768" lon="-3.16506">
        <ele>4</ele>
        <time>2019-07-18T19:05:15+02:00</time>
      </trkpt>
      <trkpt lat="47.69769" lon="-3.1654">
        <ele>4</ele>
        <time>2019-07-18T19:05:29+02:00</time>
      </trkpt>
      <trkpt lat="47.69769" lon="-3.16574">
        <ele>4</ele>
        <time>2019-07-18T19:05:44+02:00</time>
      </trkpt>
      <trkpt lat="47.69779" lon="-3.16604">
        <ele>4</ele>
        <time>2019-07-18T19:06:04+02:00</time>
      </trkpt>
      <trkpt lat="47.69788" lon="-3.16635">
        <ele>5</ele>
        <time>2019-07-18T19:06:24+02:00</time>
      </trkpt>
      <trkpt lat="47.69785" lon="-3.16669">
        <ele>5</ele>
        <time>2019-07-18T19:06:45+02:00</time>
      </trkpt>
      <trkpt lat="47.69789" lon="-3.16702">
        <ele>5</ele>
        <time>2019-07-18T19:07:03+02:00</time>
      </trkpt>
      <trkpt lat="47.69798" lon="-3.16734">
        <ele>4</ele>
        <time>2019-07-18T19:07:33+02:00</time>
      </trkpt>
      <trkpt lat="47.69815" lon="-3.16758">
        <ele>2</ele>
        <time>2019-07-18T19:07:51+02:00</time>
      </trkpt>
      <trkpt lat="47.69827" lon="-3.16785">
        <ele>1</ele>
        <time>2019-07-18T19:08:15+02:00</time>
      </trkpt>
      <trkpt lat="47.69831" lon="-3.16819">
        <ele>4.2</ele>
        <time>2019-07-18T19:08:39+02:00</time>
      </trkpt>
      <trkpt lat="47.69825" lon="-3.16851">
        <ele>2.3</ele>
        <time>2019-07-18T19:09:42+02:00</time>
      </trkpt>
      <trkpt lat="47.69804" lon="-3.16867">
        <ele>3</ele>
        <time>2019-07-18T19:13:40+02:00</time>
      </trkpt>
      <trkpt lat="47.69783" lon="-3.16855">
        <ele>1</ele>
        <time>2019-07-18T19:14:09+02:00</time>
      </trkpt>
      <trkpt lat="47.69761" lon="-3.16856">
        <ele>3</ele>
        <time>2019-07-18T19:14:30+02:00</time>
      </trkpt>
      <trkpt lat="47.69742" lon="-3.16866">
        <ele>3.7</ele>
        <time>2019-07-18T19:14:51+02:00</time>
      </trkpt>
      <trkpt lat="47.69721" lon="-3.16852">
        <ele>3.9</ele>
        <time>2019-07-18T19:15:13+02:00</time>
      </trkpt>
      <trkpt lat="47.69702" lon="-3.1683">
        <ele>3.4</ele>
        <time>2019-07-18T19:15:38+02:00</time>
      </trkpt>
      <trkpt lat="47.69681" lon="-3.16816">
        <ele>3.4</ele>
        <time>2019-07-18T19:16:12+02:00</time>
      </trkpt>
      <trkpt lat="47.69662" lon="-3.16798">
        <ele>3.4</ele>
        <time>2019-07-18T19:16:35+02:00</time>
      </trkpt>
      <trkpt lat="47.6965" lon="-3.16768">
        <ele>3</ele>
        <time>2019-07-18T19:16:56+02:00</time>
      </trkpt>
      <trkpt lat="47.69634" lon="-3.16744">
        <ele>3.2</ele>
        <time>2019-07-18T19:17:26+02:00</time>
      </trkpt>
      <trkpt lat="47.69614" lon="-3.16728">
        <ele>3.5</ele>
        <time>2019-07-18T19:17:44+02:00</time>
      </trkpt>
      <trkpt lat="47.69592" lon="-3.1672">
        <ele>4</ele>
        <time>2019-07-18T19:19:30+02:00</time>
      </trkpt>
      <trkpt lat="47.69575" lon="-3.16691">
        <ele>2.4</ele>
        <time>2019-07-18T19:19:49+02:00</time>
      </trkpt>
      <trkpt lat="47.69566" lon="-3.16658">
        <ele>1.7</ele>
        <time>2019-07-18T19:20:11+02:00</time>
      </trkpt>
      <trkpt lat="47.69566" lon="-3.16624">
        <ele>1.7</ele>
        <time>2019-07-18T19:20:43+02:00</time>
      </trkpt>
      <trkpt lat="47.69564" lon="-3.16597">
        <ele>5</ele>
        <time>2019-07-18T19:21:04+02:00</time>
      </trkpt>
      <trkpt lat="47.69563" lon="-3.16563">
        <ele>4</ele>
        <time>2019-07-18T19:21:27+02:00</time>
      </trkpt>
      <trkpt lat="47.6956" lon="-3.16528">
        <ele>2.1</ele>
        <time>2019-07-18T19:21:44+02:00</time>
      </trkpt>
      <trkpt lat="47.69548" lon="-3.16506">
        <ele>3</ele>
        <time>2019-07-18T19:24:13+02:00</time>
      </trkpt>
      <trkpt lat="47.69534" lon="-3.16487">
        <ele>3</ele>
        <time>2019-07-18T19:24:53+02:00</time>
      </trkpt>
      <trkpt lat="47.69512" lon="-3.16453">
        <ele>7</ele>
        <time>2019-07-18T19:25:36+02:00</time>
      </trkpt>
      <trkpt lat="47.695" lon="-3.1643">
        <ele>4.6</ele>
        <time>2019-07-18T19:25:57+02:00</time>
      </trkpt>
      <trkpt lat="47.69478" lon="-3.16418">
        <ele>1</ele>
        <time>2019-07-18T19:27:14+02:00</time>
      </trkpt>
      <trkpt lat="47.6946" lon="-3.16396">
        <ele>1</ele>
        <time>2019-07-18T19:27:57+02:00</time>
      </trkpt>
      <trkpt lat="47.6945" lon="-3.16376">
        <ele>7</ele>
        <time>2019-07-18T19:28:18+02:00</time>
      </trkpt>
      <trkpt lat="47.69455" lon="-3.16333">
        <ele>10</ele>
        <time>2019-07-18T19:28:43+02:00</time>
      </trkpt>
      <trkpt lat="47.69457" lon="-3.16296">
        <ele>1</ele>
        <time>2019-07-18T19:29:21+02:00</time>
      </trkpt>
      <trkpt lat="47.69457" lon="-3.16262">
        <ele>1</ele>
        <time>2019-07-18T19:29:39+02:00</time>
      </trkpt>
      <trkpt lat="47.69464" lon="-3.16229">
        <ele>1</ele>
        <time>2019-07-18T19:30:49+02:00</time>
      </trkpt>
      <trkpt lat="47.69478" lon="-3.16202">
        <ele>1</ele>
        <time>2019-07-18T19:31:32+02:00</time>
      </trkpt>
      <trkpt lat="47.69489" lon="-3.16173">
        <ele>1</ele>
        <time>2019-07-18T19:32:57+02:00</time>
      </trkpt>
      <trkpt lat="47.69482" lon="-3.1614">
        <ele>3</ele>
        <time>2019-07-18T19:35:57+02:00</time>
      </trkpt>
      <trkpt lat="47.69478" lon="-3.16106">
        <ele>3.7</ele>
        <time>2019-07-18T19:36:16+02:00</time>
      </trkpt>
      <trkpt lat="47.69472" lon="-3.16073">
        <ele>5</ele>
        <time>2019-07-18T19:36:48+02:00</time>
      </trkpt>
      <trkpt lat="47.69467" lon="-3.1604">
        <ele>1</ele>
        <time>2019-07-18T19:37:06+02:00</time>
      </trkpt>
      <trkpt lat="47.6946" lon="-3.16007">
        <ele>1</ele>
        <time>2019-07-18T19:37:23+02:00</time>
      </trkpt>
      <trkpt lat="47.69451" lon="-3.15976">
        <ele>1</ele>
        <time>2019-07-18T19:37:43+02:00</time>
      </trkpt>
      <trkpt lat="47.69444" lon="-3.15942">
        <ele>5.9</ele>
        <time>2019-07-18T19:38:00+02:00</time>
      </trkpt>
      <trkpt lat="47.69437" lon="-3.1591">
        <ele>5</ele>
        <time>2019-07-18T19:39:39+02:00</time>
      </trkpt>
      <trkpt lat="47.69447" lon="-3.1588">
        <ele>7</ele>
        <time>2019-07-18T19:39:58+02:00</time>
      </trkpt>
      <trkpt lat="47.6946" lon="-3.15856">
        <ele>9</ele>
        <time>2019-07-18T19:40:19+02:00</time>
      </trkpt>
      <trkpt lat="47.69492" lon="-3.1586">
        <ele>7</ele>
        <time>2019-07-18T19:40:40+02:00</time>
      </trkpt>
      <trkpt lat="47.69516" lon="-3.15859">
        <ele>8</ele>
        <time>2019-07-18T19:40:58+02:00</time>
      </trkpt>
      <trkpt lat="47.69539" lon="-3.15854">
        <ele>9</ele>
        <time>2019-07-18T19:41:16+02:00</time>
      </trkpt>
      <trkpt lat="47.69561" lon="-3.15857">
        <ele>9</ele>
        <time>2019-07-18T19:41:32+02:00</time>
      </trkpt>
      <trkpt lat="47.69584" lon="-3.15864">
        <ele>9</ele>
        <time>2019-07-18T19:41:44+02:00</time>
      </trkpt>
      <trkpt lat="47.69607" lon="-3.15869">
        <ele>7</ele>
        <time>2019-07-18T19:41:59+02:00</time>
      </trkpt>
      <trkpt lat="47.69631" lon="-3.1587">
        <ele>5</ele>
        <time>2019-07-18T19:42:15+02:00</time>
      </trkpt>
      <trkpt lat="47.69653" lon="-3.1587">
        <ele>4</ele>
        <time>2019-07-18T19:42:33+02:00</time>
      </trkpt>
      <trkpt lat="47.69676" lon="-3.1587">
        <ele>7</ele>
        <time>2020-10-18T14:27:21+02:00</time>
      </trkpt>
      <trkpt lat="47.69684" lon="-3.15879">
        <ele>7</ele>
        <time>2019-07-18T19:42:54+02:00</time>
      </trkpt>
    </trkseg>
  </trk>
</gpx>